sensor_id;sensor_type;location;lat;lon;timestamp;temperature;humidity
74294;DHT22;64044;59.904;10.738;2023-03-12T00:00:00;-0.50;33.70
74294;DHT22;64044;59.904;10.738;2023-03-12T00:02:26;-0.50;33.50
74294;DHT22;64044;59.904;10.738;2023-03-12T00:04:52;-0.60;33.70
74294;DHT22;64044;59.904;10.738;2023-03-12T00:07:17;-0.60;33.70
74294;DHT22;64044;59.904;10.738;2023-03-12T00:09:43;-0.60;33.70
74294;DHT22;64044;59.904;10.738;2023-03-12T00:12:10;-0.70;33.60
74294;DHT22;64044;59.904;10.738;2023-03-12T00:14:36;-0.70;33.70
74294;DHT22;64044;59.904;10.738;2023-03-12T00:17:01;-0.70;33.80
74294;DHT22;64044;59.904;10.738;2023-03-12T00:19:27;-0.70;33.80
74294;DHT22;64044;59.904;10.738;2023-03-12T00:21:53;-0.70;33.80
74294;DHT22;64044;59.904;10.738;2023-03-12T00:24:18;-0.80;33.80
74294;DHT22;64044;59.904;10.738;2023-03-12T00:26:44;-0.70;33.90
74294;DHT22;64044;59.904;10.738;2023-03-12T00:29:10;-0.80;33.70
74294;DHT22;64044;59.904;10.738;2023-03-12T00:31:35;-0.80;34.00
74294;DHT22;64044;59.904;10.738;2023-03-12T00:34:02;-0.70;34.10
74294;DHT22;64044;59.904;10.738;2023-03-12T00:36:30;-0.70;34.20
74294;DHT22;64044;59.904;10.738;2023-03-12T00:38:56;-0.70;35.00
74294;DHT22;64044;59.904;10.738;2023-03-12T00:41:24;-0.70;34.50
74294;DHT22;64044;59.904;10.738;2023-03-12T00:43:50;-0.70;35.00
74294;DHT22;64044;59.904;10.738;2023-03-12T00:46:16;-0.70;34.50
74294;DHT22;64044;59.904;10.738;2023-03-12T00:48:42;-0.70;34.30
74294;DHT22;64044;59.904;10.738;2023-03-12T00:51:08;-0.70;34.20
74294;DHT22;64044;59.904;10.738;2023-03-12T00:53:34;-0.80;33.90
74294;DHT22;64044;59.904;10.738;2023-03-12T00:56:00;-0.80;33.90
74294;DHT22;64044;59.904;10.738;2023-03-12T00:58:26;-0.80;34.40
74294;DHT22;64044;59.904;10.738;2023-03-12T01:00:52;-0.80;34.10
74294;DHT22;64044;59.904;10.738;2023-03-12T01:03:17;-0.90;34.60
74294;DHT22;64044;59.904;10.738;2023-03-12T01:05:43;-0.90;34.70
74294;DHT22;64044;59.904;10.738;2023-03-12T01:08:10;-0.90;34.70
74294;DHT22;64044;59.904;10.738;2023-03-12T01:10:39;-0.90;35.10
74294;DHT22;64044;59.904;10.738;2023-03-12T01:13:05;-0.80;34.90
74294;DHT22;64044;59.904;10.738;2023-03-12T01:15:31;-0.90;34.70
74294;DHT22;64044;59.904;10.738;2023-03-12T01:17:57;-0.90;34.60
74294;DHT22;64044;59.904;10.738;2023-03-12T01:20:23;-0.90;35.10
74294;DHT22;64044;59.904;10.738;2023-03-12T01:22:49;-1.00;35.30
74294;DHT22;64044;59.904;10.738;2023-03-12T01:25:15;-0.90;34.80
74294;DHT22;64044;59.904;10.738;2023-03-12T01:27:40;-0.90;35.40
74294;DHT22;64044;59.904;10.738;2023-03-12T01:30:07;-1.00;36.10
74294;DHT22;64044;59.904;10.738;2023-03-12T01:32:32;-0.90;37.30
74294;DHT22;64044;59.904;10.738;2023-03-12T01:34:59;-0.90;38.00
74294;DHT22;64044;59.904;10.738;2023-03-12T01:37:25;-0.90;37.70
74294;DHT22;64044;59.904;10.738;2023-03-12T01:39:51;-0.80;38.30
74294;DHT22;64044;59.904;10.738;2023-03-12T01:42:17;-0.80;38.00
74294;DHT22;64044;59.904;10.738;2023-03-12T01:44:59;-0.70;38.10
74294;DHT22;64044;59.904;10.738;2023-03-12T01:47:26;-0.70;37.60
74294;DHT22;64044;59.904;10.738;2023-03-12T01:49:53;-0.70;37.20
74294;DHT22;64044;59.904;10.738;2023-03-12T01:52:24;-0.60;36.80
74294;DHT22;64044;59.904;10.738;2023-03-12T01:57:40;-0.60;36.50
74294;DHT22;64044;59.904;10.738;2023-03-12T02:00:17;-0.60;36.60
74294;DHT22;64044;59.904;10.738;2023-03-12T02:02:45;-0.60;36.30
74294;DHT22;64044;59.904;10.738;2023-03-12T02:05:28;-0.60;36.50
74294;DHT22;64044;59.904;10.738;2023-03-12T02:07:56;-0.70;37.00
74294;DHT22;64044;59.904;10.738;2023-03-12T02:10:23;-0.60;36.50
74294;DHT22;64044;59.904;10.738;2023-03-12T02:12:49;-0.70;37.30
74294;DHT22;64044;59.904;10.738;2023-03-12T02:15:15;-0.60;36.70
74294;DHT22;64044;59.904;10.738;2023-03-12T02:17:41;-0.60;36.50
74294;DHT22;64044;59.904;10.738;2023-03-12T02:23:09;-0.60;37.90
74294;DHT22;64044;59.904;10.738;2023-03-12T02:25:55;-0.60;37.20
74294;DHT22;64044;59.904;10.738;2023-03-12T02:28:25;-0.60;36.90
74294;DHT22;64044;59.904;10.738;2023-03-12T02:30:57;-0.60;36.80
74294;DHT22;64044;59.904;10.738;2023-03-12T02:33:23;-0.60;37.20
74294;DHT22;64044;59.904;10.738;2023-03-12T02:35:51;-0.60;37.60
74294;DHT22;64044;59.904;10.738;2023-03-12T02:38:49;-0.60;37.60
74294;DHT22;64044;59.904;10.738;2023-03-12T02:44:00;-0.60;37.50
74294;DHT22;64044;59.904;10.738;2023-03-12T02:46:29;-0.60;37.20
74294;DHT22;64044;59.904;10.738;2023-03-12T02:48:57;-0.60;38.00
74294;DHT22;64044;59.904;10.738;2023-03-12T02:51:23;-0.60;37.40
74294;DHT22;64044;59.904;10.738;2023-03-12T02:53:49;-0.60;37.40
74294;DHT22;64044;59.904;10.738;2023-03-12T02:56:22;-0.60;37.20
74294;DHT22;64044;59.904;10.738;2023-03-12T02:58:48;-0.70;37.20
74294;DHT22;64044;59.904;10.738;2023-03-12T03:01:14;-0.70;37.30
74294;DHT22;64044;59.904;10.738;2023-03-12T03:03:40;-0.70;37.60
74294;DHT22;64044;59.904;10.738;2023-03-12T03:06:06;-0.70;37.60
74294;DHT22;64044;59.904;10.738;2023-03-12T03:08:32;-0.70;37.30
74294;DHT22;64044;59.904;10.738;2023-03-12T03:10:57;-0.70;36.80
74294;DHT22;64044;59.904;10.738;2023-03-12T03:13:25;-0.70;36.30
74294;DHT22;64044;59.904;10.738;2023-03-12T03:15:50;-0.70;36.20
74294;DHT22;64044;59.904;10.738;2023-03-12T03:18:16;-0.80;36.40
74294;DHT22;64044;59.904;10.738;2023-03-12T03:20:42;-0.80;36.40
74294;DHT22;64044;59.904;10.738;2023-03-12T03:23:09;-0.80;36.80
74294;DHT22;64044;59.904;10.738;2023-03-12T03:25:35;-0.80;36.80
74294;DHT22;64044;59.904;10.738;2023-03-12T03:28:00;-0.80;36.60
74294;DHT22;64044;59.904;10.738;2023-03-12T03:30:26;-0.90;37.00
74294;DHT22;64044;59.904;10.738;2023-03-12T03:32:52;-0.90;36.30
74294;DHT22;64044;59.904;10.738;2023-03-12T03:35:18;-0.90;37.00
74294;DHT22;64044;59.904;10.738;2023-03-12T03:37:44;-0.90;37.10
74294;DHT22;64044;59.904;10.738;2023-03-12T03:40:10;-0.90;37.70
74294;DHT22;64044;59.904;10.738;2023-03-12T03:42:37;-0.90;37.90
74294;DHT22;64044;59.904;10.738;2023-03-12T03:45:05;-0.90;37.50
74294;DHT22;64044;59.904;10.738;2023-03-12T03:47:30;-0.90;37.20
74294;DHT22;64044;59.904;10.738;2023-03-12T03:49:56;-0.90;37.50
74294;DHT22;64044;59.904;10.738;2023-03-12T03:52:22;-0.90;37.70
74294;DHT22;64044;59.904;10.738;2023-03-12T03:54:47;-0.90;37.20
74294;DHT22;64044;59.904;10.738;2023-03-12T03:57:13;-0.90;37.30
74294;DHT22;64044;59.904;10.738;2023-03-12T03:59:39;-0.90;37.00
74294;DHT22;64044;59.904;10.738;2023-03-12T04:02:04;-0.90;37.20
74294;DHT22;64044;59.904;10.738;2023-03-12T04:04:30;-0.90;37.00
74294;DHT22;64044;59.904;10.738;2023-03-12T04:06:56;-0.90;38.30
74294;DHT22;64044;59.904;10.738;2023-03-12T04:09:22;-0.90;38.20
74294;DHT22;64044;59.904;10.738;2023-03-12T04:11:47;-0.90;38.50
74294;DHT22;64044;59.904;10.738;2023-03-12T04:14:13;-0.90;39.40
74294;DHT22;64044;59.904;10.738;2023-03-12T04:16:39;-0.90;38.80
74294;DHT22;64044;59.904;10.738;2023-03-12T04:19:04;-0.90;37.90
74294;DHT22;64044;59.904;10.738;2023-03-12T04:21:30;-0.90;37.90
74294;DHT22;64044;59.904;10.738;2023-03-12T04:23:56;-0.90;37.50
74294;DHT22;64044;59.904;10.738;2023-03-12T04:26:21;-0.90;37.50
74294;DHT22;64044;59.904;10.738;2023-03-12T04:28:47;-0.90;38.30
74294;DHT22;64044;59.904;10.738;2023-03-12T04:31:13;-0.90;37.80
74294;DHT22;64044;59.904;10.738;2023-03-12T04:33:39;-0.90;37.40
74294;DHT22;64044;59.904;10.738;2023-03-12T04:36:05;-0.90;37.30
74294;DHT22;64044;59.904;10.738;2023-03-12T04:38:32;-0.90;39.10
74294;DHT22;64044;59.904;10.738;2023-03-12T04:41:04;-1.00;38.90
74294;DHT22;64044;59.904;10.738;2023-03-12T04:43:30;-1.00;38.30
74294;DHT22;64044;59.904;10.738;2023-03-12T04:45:56;-1.00;38.70
74294;DHT22;64044;59.904;10.738;2023-03-12T04:48:23;-1.00;38.70
74294;DHT22;64044;59.904;10.738;2023-03-12T04:50:49;-1.00;38.90
74294;DHT22;64044;59.904;10.738;2023-03-12T04:53:15;-1.00;37.40
74294;DHT22;64044;59.904;10.738;2023-03-12T04:55:41;-1.10;37.20
74294;DHT22;64044;59.904;10.738;2023-03-12T04:58:07;-1.10;37.20
74294;DHT22;64044;59.904;10.738;2023-03-12T05:00:33;-1.00;37.40
74294;DHT22;64044;59.904;10.738;2023-03-12T05:02:59;-1.10;38.10
74294;DHT22;64044;59.904;10.738;2023-03-12T05:05:24;-1.10;38.10
74294;DHT22;64044;59.904;10.738;2023-03-12T05:07:50;-1.10;39.00
74294;DHT22;64044;59.904;10.738;2023-03-12T05:10:16;-1.10;38.20
74294;DHT22;64044;59.904;10.738;2023-03-12T05:12:42;-1.10;38.30
74294;DHT22;64044;59.904;10.738;2023-03-12T05:15:07;-1.20;38.20
74294;DHT22;64044;59.904;10.738;2023-03-12T05:17:33;-1.20;37.60
74294;DHT22;64044;59.904;10.738;2023-03-12T05:19:59;-1.20;37.60
74294;DHT22;64044;59.904;10.738;2023-03-12T05:22:25;-1.30;37.50
74294;DHT22;64044;59.904;10.738;2023-03-12T05:24:50;-1.30;38.00
74294;DHT22;64044;59.904;10.738;2023-03-12T05:27:16;-1.30;38.10
74294;DHT22;64044;59.904;10.738;2023-03-12T05:29:42;-1.30;37.60
74294;DHT22;64044;59.904;10.738;2023-03-12T05:32:07;-1.30;38.30
74294;DHT22;64044;59.904;10.738;2023-03-12T05:34:58;-1.30;38.40
74294;DHT22;64044;59.904;10.738;2023-03-12T05:37:24;-1.30;38.90
74294;DHT22;64044;59.904;10.738;2023-03-12T05:39:52;-1.40;38.70
74294;DHT22;64044;59.904;10.738;2023-03-12T05:42:18;-1.40;38.90
74294;DHT22;64044;59.904;10.738;2023-03-12T05:44:44;-1.40;38.60
74294;DHT22;64044;59.904;10.738;2023-03-12T05:47:10;-1.40;38.80
74294;DHT22;64044;59.904;10.738;2023-03-12T05:49:35;-1.40;39.00
74294;DHT22;64044;59.904;10.738;2023-03-12T05:52:01;-1.40;38.60
74294;DHT22;64044;59.904;10.738;2023-03-12T05:54:27;-1.50;39.40
74294;DHT22;64044;59.904;10.738;2023-03-12T05:56:53;-1.50;40.00
74294;DHT22;64044;59.904;10.738;2023-03-12T05:59:20;-1.50;40.30
74294;DHT22;64044;59.904;10.738;2023-03-12T06:01:46;-1.60;40.40
74294;DHT22;64044;59.904;10.738;2023-03-12T06:04:11;-1.60;40.30
74294;DHT22;64044;59.904;10.738;2023-03-12T06:06:37;-1.60;39.80
74294;DHT22;64044;59.904;10.738;2023-03-12T06:09:04;-1.70;39.40
74294;DHT22;64044;59.904;10.738;2023-03-12T06:11:32;-1.70;39.20
74294;DHT22;64044;59.904;10.738;2023-03-12T06:13:58;-1.80;39.60
74294;DHT22;64044;59.904;10.738;2023-03-12T06:16:26;-1.80;39.70
74294;DHT22;64044;59.904;10.738;2023-03-12T06:18:53;-1.90;39.70
74294;DHT22;64044;59.904;10.738;2023-03-12T06:21:22;-1.90;39.70
74294;DHT22;64044;59.904;10.738;2023-03-12T06:23:48;-2.00;39.80
74294;DHT22;64044;59.904;10.738;2023-03-12T06:26:15;-2.00;39.60
74294;DHT22;64044;59.904;10.738;2023-03-12T06:28:42;-2.00;40.30
74294;DHT22;64044;59.904;10.738;2023-03-12T06:31:08;-2.10;40.50
74294;DHT22;64044;59.904;10.738;2023-03-12T06:33:34;-2.10;40.60
74294;DHT22;64044;59.904;10.738;2023-03-12T06:36:02;-2.20;40.70
74294;DHT22;64044;59.904;10.738;2023-03-12T06:38:28;-2.20;41.10
74294;DHT22;64044;59.904;10.738;2023-03-12T06:40:59;-2.20;41.30
74294;DHT22;64044;59.904;10.738;2023-03-12T06:43:26;-2.20;41.50
74294;DHT22;64044;59.904;10.738;2023-03-12T06:45:54;-2.30;41.60
74294;DHT22;64044;59.904;10.738;2023-03-12T06:48:20;-2.30;41.40
74294;DHT22;64044;59.904;10.738;2023-03-12T06:50:46;-2.30;41.10
74294;DHT22;64044;59.904;10.738;2023-03-12T06:53:12;-2.30;41.60
74294;DHT22;64044;59.904;10.738;2023-03-12T06:55:37;-2.30;42.00
74294;DHT22;64044;59.904;10.738;2023-03-12T06:58:04;-2.30;42.20
74294;DHT22;64044;59.904;10.738;2023-03-12T07:00:33;-2.30;42.30
74294;DHT22;64044;59.904;10.738;2023-03-12T07:02:59;-2.30;42.30
74294;DHT22;64044;59.904;10.738;2023-03-12T07:05:26;-2.20;41.70
74294;DHT22;64044;59.904;10.738;2023-03-12T07:07:52;-2.20;41.80
74294;DHT22;64044;59.904;10.738;2023-03-12T07:10:17;-2.20;41.50
74294;DHT22;64044;59.904;10.738;2023-03-12T07:12:44;-2.10;41.30
74294;DHT22;64044;59.904;10.738;2023-03-12T07:15:11;-2.10;41.40
74294;DHT22;64044;59.904;10.738;2023-03-12T07:17:36;-2.10;41.80
74294;DHT22;64044;59.904;10.738;2023-03-12T07:20:02;-2.10;41.60
74294;DHT22;64044;59.904;10.738;2023-03-12T07:22:28;-2.10;41.30
74294;DHT22;64044;59.904;10.738;2023-03-12T07:24:54;-2.00;41.10
74294;DHT22;64044;59.904;10.738;2023-03-12T07:27:20;-2.00;40.80
74294;DHT22;64044;59.904;10.738;2023-03-12T07:29:45;-2.00;40.80
74294;DHT22;64044;59.904;10.738;2023-03-12T07:32:11;-1.90;40.50
74294;DHT22;64044;59.904;10.738;2023-03-12T07:34:37;-1.90;41.10
74294;DHT22;64044;59.904;10.738;2023-03-12T07:37:03;-1.90;41.30
74294;DHT22;64044;59.904;10.738;2023-03-12T07:39:29;-1.80;41.60
74294;DHT22;64044;59.904;10.738;2023-03-12T07:41:55;-1.80;41.70
74294;DHT22;64044;59.904;10.738;2023-03-12T07:44:21;-1.70;41.40
74294;DHT22;64044;59.904;10.738;2023-03-12T07:46:47;-1.70;41.50
74294;DHT22;64044;59.904;10.738;2023-03-12T07:49:12;-1.70;41.50
74294;DHT22;64044;59.904;10.738;2023-03-12T07:51:38;-1.60;41.60
74294;DHT22;64044;59.904;10.738;2023-03-12T07:54:04;-1.60;41.80
74294;DHT22;64044;59.904;10.738;2023-03-12T07:56:29;-1.50;42.00
74294;DHT22;64044;59.904;10.738;2023-03-12T07:58:56;-1.40;42.10
74294;DHT22;64044;59.904;10.738;2023-03-12T08:01:21;-1.40;42.30
74294;DHT22;64044;59.904;10.738;2023-03-12T08:03:47;-1.40;42.40
74294;DHT22;64044;59.904;10.738;2023-03-12T08:06:13;-1.30;42.50
74294;DHT22;64044;59.904;10.738;2023-03-12T08:08:39;-1.20;42.70
74294;DHT22;64044;59.904;10.738;2023-03-12T08:11:07;-1.20;42.40
74294;DHT22;64044;59.904;10.738;2023-03-12T08:13:34;-1.20;42.20
74294;DHT22;64044;59.904;10.738;2023-03-12T08:15:59;-1.10;42.10
74294;DHT22;64044;59.904;10.738;2023-03-12T08:18:25;-1.10;42.60
74294;DHT22;64044;59.904;10.738;2023-03-12T08:20:52;-1.00;41.80
74294;DHT22;64044;59.904;10.738;2023-03-12T08:23:19;-1.00;41.60
74294;DHT22;64044;59.904;10.738;2023-03-12T08:25:46;-0.90;41.50
74294;DHT22;64044;59.904;10.738;2023-03-12T08:28:12;-0.90;41.50
74294;DHT22;64044;59.904;10.738;2023-03-12T08:30:37;-0.80;41.10
74294;DHT22;64044;59.904;10.738;2023-03-12T08:33:03;-0.70;40.90
74294;DHT22;64044;59.904;10.738;2023-03-12T08:35:30;-0.60;40.70
74294;DHT22;64044;59.904;10.738;2023-03-12T08:37:55;-0.50;40.60
74294;DHT22;64044;59.904;10.738;2023-03-12T08:40:23;-0.40;40.40
74294;DHT22;64044;59.904;10.738;2023-03-12T08:43:14;-0.30;40.20
74294;DHT22;64044;59.904;10.738;2023-03-12T08:45:40;-0.10;40.00
74294;DHT22;64044;59.904;10.738;2023-03-12T08:48:06;0.00;39.90
74294;DHT22;64044;59.904;10.738;2023-03-12T08:50:32;0.10;39.80
74294;DHT22;64044;59.904;10.738;2023-03-12T08:52:58;0.30;39.90
74294;DHT22;64044;59.904;10.738;2023-03-12T08:55:25;0.40;39.80
74294;DHT22;64044;59.904;10.738;2023-03-12T08:57:53;0.50;39.80
74294;DHT22;64044;59.904;10.738;2023-03-12T09:00:19;0.60;40.20
74294;DHT22;64044;59.904;10.738;2023-03-12T09:02:45;0.70;39.50
74294;DHT22;64044;59.904;10.738;2023-03-12T09:05:12;0.80;39.80
74294;DHT22;64044;59.904;10.738;2023-03-12T09:07:38;0.90;39.90
74294;DHT22;64044;59.904;10.738;2023-03-12T09:10:04;1.00;39.50
74294;DHT22;64044;59.904;10.738;2023-03-12T09:12:30;1.10;39.40
74294;DHT22;64044;59.904;10.738;2023-03-12T09:14:56;1.10;39.50
74294;DHT22;64044;59.904;10.738;2023-03-12T09:17:23;1.20;39.10
74294;DHT22;64044;59.904;10.738;2023-03-12T09:19:49;1.40;39.10
74294;DHT22;64044;59.904;10.738;2023-03-12T09:22:14;1.50;39.20
74294;DHT22;64044;59.904;10.738;2023-03-12T09:24:41;1.60;38.90
74294;DHT22;64044;59.904;10.738;2023-03-12T09:27:07;1.70;38.70
74294;DHT22;64044;59.904;10.738;2023-03-12T09:29:32;1.80;38.50
74294;DHT22;64044;59.904;10.738;2023-03-12T09:31:58;1.80;38.40
74294;DHT22;64044;59.904;10.738;2023-03-12T09:34:24;2.00;38.60
74294;DHT22;64044;59.904;10.738;2023-03-12T09:36:50;2.00;38.30
74294;DHT22;64044;59.904;10.738;2023-03-12T09:39:16;2.10;38.20
74294;DHT22;64044;59.904;10.738;2023-03-12T09:41:44;2.20;37.70
74294;DHT22;64044;59.904;10.738;2023-03-12T09:46:55;2.40;37.10
74294;DHT22;64044;59.904;10.738;2023-03-12T09:49:30;2.40;37.20
74294;DHT22;64044;59.904;10.738;2023-03-12T09:51:57;2.50;37.10
74294;DHT22;64044;59.904;10.738;2023-03-12T09:54:37;2.50;36.70
74294;DHT22;64044;59.904;10.738;2023-03-12T09:57:13;2.60;36.90
74294;DHT22;64044;59.904;10.738;2023-03-12T09:59:42;2.70;36.70
74294;DHT22;64044;59.904;10.738;2023-03-12T10:05:18;2.80;36.10
74294;DHT22;64044;59.904;10.738;2023-03-12T10:07:55;2.90;36.20
74294;DHT22;64044;59.904;10.738;2023-03-12T10:15:53;3.10;35.40
74294;DHT22;64044;59.904;10.738;2023-03-12T10:26:54;3.30;35.10
74294;DHT22;64044;59.904;10.738;2023-03-12T10:29:30;3.40;35.20
74294;DHT22;64044;59.904;10.738;2023-03-12T10:32:10;3.40;35.10
74294;DHT22;64044;59.904;10.738;2023-03-12T10:35:02;3.40;35.10
74294;DHT22;64044;59.904;10.738;2023-03-12T10:38:09;3.50;35.10
74294;DHT22;64044;59.904;10.738;2023-03-12T10:40:39;3.60;34.50
74294;DHT22;64044;59.904;10.738;2023-03-12T10:43:05;3.60;34.40
74294;DHT22;64044;59.904;10.738;2023-03-12T10:48:16;3.80;34.30
74294;DHT22;64044;59.904;10.738;2023-03-12T10:50:42;3.90;34.30
74294;DHT22;64044;59.904;10.738;2023-03-12T10:56:03;4.10;34.20
74294;DHT22;64044;59.904;10.738;2023-03-12T10:58:49;4.20;33.90
74294;DHT22;64044;59.904;10.738;2023-03-12T11:01:24;4.30;34.10
74294;DHT22;64044;59.904;10.738;2023-03-12T11:03:51;4.40;33.60
74294;DHT22;64044;59.904;10.738;2023-03-12T11:06:28;4.60;33.70
74294;DHT22;64044;59.904;10.738;2023-03-12T11:09:04;4.70;33.60
74294;DHT22;64044;59.904;10.738;2023-03-12T11:11:32;4.90;33.20
74294;DHT22;64044;59.904;10.738;2023-03-12T11:16:39;5.20;32.60
74294;DHT22;64044;59.904;10.738;2023-03-12T11:19:05;5.30;32.70
74294;DHT22;64044;59.904;10.738;2023-03-12T11:21:34;5.40;32.20
74294;DHT22;64044;59.904;10.738;2023-03-12T11:24:19;5.50;32.10
74294;DHT22;64044;59.904;10.738;2023-03-12T11:26:55;5.60;31.80
74294;DHT22;64044;59.904;10.738;2023-03-12T11:29:37;5.50;31.10
74294;DHT22;64044;59.904;10.738;2023-03-12T11:34:53;5.50;30.70
74294;DHT22;64044;59.904;10.738;2023-03-12T11:56:29;5.80;30.60
74294;DHT22;64044;59.904;10.738;2023-03-12T12:20:27;6.40;30.60
74294;DHT22;64044;59.904;10.738;2023-03-12T12:33:47;6.70;30.30
74294;DHT22;64044;59.904;10.738;2023-03-12T12:36:17;6.70;30.40
74294;DHT22;64044;59.904;10.738;2023-03-12T12:38:51;6.80;30.40
74294;DHT22;64044;59.904;10.738;2023-03-12T12:44:01;7.00;30.10
74294;DHT22;64044;59.904;10.738;2023-03-12T12:46:33;7.10;29.60
74294;DHT22;64044;59.904;10.738;2023-03-12T12:49:04;7.20;29.40
74294;DHT22;64044;59.904;10.738;2023-03-12T12:51:36;7.20;29.30
74294;DHT22;64044;59.904;10.738;2023-03-12T12:59:39;7.20;28.80
74294;DHT22;64044;59.904;10.738;2023-03-12T13:02:35;7.20;28.70
74294;DHT22;64044;59.904;10.738;2023-03-12T13:05:02;7.10;28.90
74294;DHT22;64044;59.904;10.738;2023-03-12T13:07:30;7.00;29.10
74294;DHT22;64044;59.904;10.738;2023-03-12T13:09:57;7.00;28.90
74294;DHT22;64044;59.904;10.738;2023-03-12T13:12:40;6.90;28.90
74294;DHT22;64044;59.904;10.738;2023-03-12T13:20:22;6.50;29.10
74294;DHT22;64044;59.904;10.738;2023-03-12T13:26:36;6.40;29.30
74294;DHT22;64044;59.904;10.738;2023-03-12T13:28:59;6.30;29.30
74294;DHT22;64044;59.904;10.738;2023-03-12T13:31:37;6.30;29.20
74294;DHT22;64044;59.904;10.738;2023-03-12T13:36:56;6.20;30.00
74294;DHT22;64044;59.904;10.738;2023-03-12T13:39:32;6.20;29.90
74294;DHT22;64044;59.904;10.738;2023-03-12T13:42:00;6.30;30.00
74294;DHT22;64044;59.904;10.738;2023-03-12T13:57:50;7.40;29.50
74294;DHT22;64044;59.904;10.738;2023-03-12T14:00:30;7.70;29.80
74294;DHT22;64044;59.904;10.738;2023-03-12T14:05:58;8.50;29.00
74294;DHT22;64044;59.904;10.738;2023-03-12T14:16:58;10.50;28.10
74294;DHT22;64044;59.904;10.738;2023-03-12T14:19:30;11.10;27.40
74294;DHT22;64044;59.904;10.738;2023-03-12T14:22:01;11.50;26.90
74294;DHT22;64044;59.904;10.738;2023-03-12T14:24:37;11.90;26.50
74294;DHT22;64044;59.904;10.738;2023-03-12T14:27:05;12.20;26.00
74294;DHT22;64044;59.904;10.738;2023-03-12T14:32:22;12.50;25.40
74294;DHT22;64044;59.904;10.738;2023-03-12T14:35:21;12.60;24.90
74294;DHT22;64044;59.904;10.738;2023-03-12T14:38:36;12.60;24.30
74294;DHT22;64044;59.904;10.738;2023-03-12T14:43:38;12.30;24.40
74294;DHT22;64044;59.904;10.738;2023-03-12T14:46:16;12.10;24.60
74294;DHT22;64044;59.904;10.738;2023-03-12T14:48:47;11.80;24.50
74294;DHT22;64044;59.904;10.738;2023-03-12T14:51:25;11.50;24.60
74294;DHT22;64044;59.904;10.738;2023-03-12T14:53:51;11.20;24.60
74294;DHT22;64044;59.904;10.738;2023-03-12T14:58:56;10.70;24.90
74294;DHT22;64044;59.904;10.738;2023-03-12T15:01:28;10.40;25.20
74294;DHT22;64044;59.904;10.738;2023-03-12T15:04:00;10.20;25.60
74294;DHT22;64044;59.904;10.738;2023-03-12T15:06:33;10.00;25.80
74294;DHT22;64044;59.904;10.738;2023-03-12T15:09:02;9.80;25.90
74294;DHT22;64044;59.904;10.738;2023-03-12T15:11:30;9.70;25.90
74294;DHT22;64044;59.904;10.738;2023-03-12T15:14:03;9.50;26.10
74294;DHT22;64044;59.904;10.738;2023-03-12T15:16:29;9.30;26.10
74294;DHT22;64044;59.904;10.738;2023-03-12T15:18:55;9.10;26.20
74294;DHT22;64044;59.904;10.738;2023-03-12T15:21:21;8.90;26.30
74294;DHT22;64044;59.904;10.738;2023-03-12T15:23:48;8.70;26.20
74294;DHT22;64044;59.904;10.738;2023-03-12T15:26:30;8.60;26.20
74294;DHT22;64044;59.904;10.738;2023-03-12T15:29:22;8.40;26.20
74294;DHT22;64044;59.904;10.738;2023-03-12T15:32:00;8.30;26.40
74294;DHT22;64044;59.904;10.738;2023-03-12T15:34:36;8.10;26.60
74294;DHT22;64044;59.904;10.738;2023-03-12T15:39:49;7.70;26.90
74294;DHT22;64044;59.904;10.738;2023-03-12T15:42:17;7.60;27.00
74294;DHT22;64044;59.904;10.738;2023-03-12T15:47:20;7.20;27.10
74294;DHT22;64044;59.904;10.738;2023-03-12T15:50:23;7.10;27.40
74294;DHT22;64044;59.904;10.738;2023-03-12T15:55:32;6.80;28.00
74294;DHT22;64044;59.904;10.738;2023-03-12T15:57:59;6.60;28.10
74294;DHT22;64044;59.904;10.738;2023-03-12T16:00:43;6.50;28.40
74294;DHT22;64044;59.904;10.738;2023-03-12T16:03:28;6.30;28.50
74294;DHT22;64044;59.904;10.738;2023-03-12T16:05:55;6.20;28.50
74294;DHT22;64044;59.904;10.738;2023-03-12T16:08:35;6.10;28.40
74294;DHT22;64044;59.904;10.738;2023-03-12T16:11:02;6.00;28.60
74294;DHT22;64044;59.904;10.738;2023-03-12T16:13:30;5.90;28.60
74294;DHT22;64044;59.904;10.738;2023-03-12T16:16:21;5.80;28.50
74294;DHT22;64044;59.904;10.738;2023-03-12T16:18:47;5.70;28.50
74294;DHT22;64044;59.904;10.738;2023-03-12T16:21:12;5.60;28.60
74294;DHT22;64044;59.904;10.738;2023-03-12T16:23:38;5.50;28.80
74294;DHT22;64044;59.904;10.738;2023-03-12T16:26:05;5.50;29.10
74294;DHT22;64044;59.904;10.738;2023-03-12T16:28:33;5.40;29.20
74294;DHT22;64044;59.904;10.738;2023-03-12T16:30:59;5.30;29.40
74294;DHT22;64044;59.904;10.738;2023-03-12T16:33:25;5.20;29.60
74294;DHT22;64044;59.904;10.738;2023-03-12T16:35:51;5.10;30.00
74294;DHT22;64044;59.904;10.738;2023-03-12T16:38:17;5.00;30.40
74294;DHT22;64044;59.904;10.738;2023-03-12T16:40:46;4.90;30.90
74294;DHT22;64044;59.904;10.738;2023-03-12T16:43:21;4.90;31.40
74294;DHT22;64044;59.904;10.738;2023-03-12T16:45:49;4.80;31.80
74294;DHT22;64044;59.904;10.738;2023-03-12T16:48:18;4.70;32.50
74294;DHT22;64044;59.904;10.738;2023-03-12T16:50:46;4.70;32.40
74294;DHT22;64044;59.904;10.738;2023-03-12T16:53:13;4.60;32.70
74294;DHT22;64044;59.904;10.738;2023-03-12T16:55:47;4.60;32.80
74294;DHT22;64044;59.904;10.738;2023-03-12T16:58:16;4.50;33.20
74294;DHT22;64044;59.904;10.738;2023-03-12T17:00:43;4.40;33.20
74294;DHT22;64044;59.904;10.738;2023-03-12T17:03:25;4.30;33.80
74294;DHT22;64044;59.904;10.738;2023-03-12T17:05:51;4.30;33.40
74294;DHT22;64044;59.904;10.738;2023-03-12T17:08:17;4.20;33.20
74294;DHT22;64044;59.904;10.738;2023-03-12T17:10:43;4.20;33.20
74294;DHT22;64044;59.904;10.738;2023-03-12T17:13:28;4.10;33.30
74294;DHT22;64044;59.904;10.738;2023-03-12T17:15:54;4.00;34.10
74294;DHT22;64044;59.904;10.738;2023-03-12T17:18:21;4.00;33.70
74294;DHT22;64044;59.904;10.738;2023-03-12T17:20:48;3.90;33.90
74294;DHT22;64044;59.904;10.738;2023-03-12T17:23:15;3.90;34.40
74294;DHT22;64044;59.904;10.738;2023-03-12T17:25:42;3.90;34.40
74294;DHT22;64044;59.904;10.738;2023-03-12T17:28:08;3.80;34.70
74294;DHT22;64044;59.904;10.738;2023-03-12T17:30:35;3.80;34.60
74294;DHT22;64044;59.904;10.738;2023-03-12T17:33:04;3.70;34.60
74294;DHT22;64044;59.904;10.738;2023-03-12T17:35:30;3.70;34.60
74294;DHT22;64044;59.904;10.738;2023-03-12T17:37:57;3.70;34.50
74294;DHT22;64044;59.904;10.738;2023-03-12T17:40:22;3.70;34.50
74294;DHT22;64044;59.904;10.738;2023-03-12T17:42:48;3.70;34.50
74294;DHT22;64044;59.904;10.738;2023-03-12T17:45:14;3.60;34.50
74294;DHT22;64044;59.904;10.738;2023-03-12T17:47:40;3.60;34.30
74294;DHT22;64044;59.904;10.738;2023-03-12T17:50:06;3.60;34.50
74294;DHT22;64044;59.904;10.738;2023-03-12T17:52:32;3.60;34.60
74294;DHT22;64044;59.904;10.738;2023-03-12T17:54:58;3.60;34.70
74294;DHT22;64044;59.904;10.738;2023-03-12T17:57:25;3.60;34.80
74294;DHT22;64044;59.904;10.738;2023-03-12T17:59:51;3.60;35.00
74294;DHT22;64044;59.904;10.738;2023-03-12T18:02:17;3.60;35.00